sensor_id;sensor_type;location;lat;lon;timestamp;temperature;humidity
35127;DHT22;21300;52.006;5.798;2023-05-27T00:02:23;13.90;76.30
35127;DHT22;21300;52.006;5.798;2023-05-27T00:04:49;13.90;76.40
35127;DHT22;21300;52.006;5.798;2023-05-27T00:07:14;13.90;76.50
35127;DHT22;21300;52.006;5.798;2023-05-27T00:12:43;13.80;76.50
35127;DHT22;21300;52.006;5.798;2023-05-27T00:15:09;13.80;76.60
35127;DHT22;21300;52.006;5.798;2023-05-27T00:17:35;13.80;76.60
35127;DHT22;21300;52.006;5.798;2023-05-27T00:20:01;13.70;76.60
35127;DHT22;21300;52.006;5.798;2023-05-27T00:22:34;13.70;76.60
35127;DHT22;21300;52.006;5.798;2023-05-27T00:25:03;13.70;76.70
35127;DHT22;21300;52.006;5.798;2023-05-27T00:27:28;13.60;76.80
35127;DHT22;21300;52.006;5.798;2023-05-27T00:29:54;13.60;76.80
35127;DHT22;21300;52.006;5.798;2023-05-27T00:32:19;13.60;76.70
35127;DHT22;21300;52.006;5.798;2023-05-27T00:34:45;13.60;76.90
35127;DHT22;21300;52.006;5.798;2023-05-27T00:37:10;13.60;76.90
35127;DHT22;21300;52.006;5.798;2023-05-27T00:39:36;13.50;76.90
35127;DHT22;21300;52.006;5.798;2023-05-27T00:42:02;13.50;77.00
35127;DHT22;21300;52.006;5.798;2023-05-27T00:44:28;13.50;76.80
35127;DHT22;21300;52.006;5.798;2023-05-27T00:46:53;13.50;76.90
35127;DHT22;21300;52.006;5.798;2023-05-27T00:49:19;13.40;77.10
35127;DHT22;21300;52.006;5.798;2023-05-27T00:51:45;13.40;77.10
35127;DHT22;21300;52.006;5.798;2023-05-27T00:54:11;13.40;77.50
35127;DHT22;21300;52.006;5.798;2023-05-27T00:56:37;13.40;77.10
35127;DHT22;21300;52.006;5.798;2023-05-27T00:59:03;13.40;77.20
35127;DHT22;21300;52.006;5.798;2023-05-27T01:01:29;13.30;76.70
35127;DHT22;21300;52.006;5.798;2023-05-27T01:03:56;13.30;77.50
35127;DHT22;21300;52.006;5.798;2023-05-27T01:06:42;13.30;77.10
35127;DHT22;21300;52.006;5.798;2023-05-27T01:15:05;13.20;77.20
35127;DHT22;21300;52.006;5.798;2023-05-27T01:17:33;13.20;77.10
35127;DHT22;21300;52.006;5.798;2023-05-27T01:20:03;13.20;77.10
35127;DHT22;21300;52.006;5.798;2023-05-27T01:22:31;13.10;77.20
35127;DHT22;21300;52.006;5.798;2023-05-27T01:24:57;13.10;77.10
35127;DHT22;21300;52.006;5.798;2023-05-27T01:27:23;13.10;77.00
35127;DHT22;21300;52.006;5.798;2023-05-27T01:29:52;13.00;77.30
35127;DHT22;21300;52.006;5.798;2023-05-27T01:32:35;13.00;77.30
35127;DHT22;21300;52.006;5.798;2023-05-27T01:35:22;13.00;77.60
35127;DHT22;21300;52.006;5.798;2023-05-27T01:37:51;13.00;77.40
35127;DHT22;21300;52.006;5.798;2023-05-27T01:40:17;12.90;77.50
35127;DHT22;21300;52.006;5.798;2023-05-27T01:42:43;12.90;77.40
35127;DHT22;21300;52.006;5.798;2023-05-27T01:45:10;12.90;77.60
35127;DHT22;21300;52.006;5.798;2023-05-27T01:47:36;12.90;77.90
35127;DHT22;21300;52.006;5.798;2023-05-27T01:50:03;12.90;77.40
35127;DHT22;21300;52.006;5.798;2023-05-27T01:52:28;12.90;77.90
35127;DHT22;21300;52.006;5.798;2023-05-27T01:54:54;12.80;77.90
35127;DHT22;21300;52.006;5.798;2023-05-27T01:57:21;12.80;77.90
35127;DHT22;21300;52.006;5.798;2023-05-27T01:59:46;12.80;77.90
35127;DHT22;21300;52.006;5.798;2023-05-27T02:02:12;12.80;77.80
35127;DHT22;21300;52.006;5.798;2023-05-27T02:04:38;12.80;78.00
35127;DHT22;21300;52.006;5.798;2023-05-27T02:07:03;12.70;77.90
35127;DHT22;21300;52.006;5.798;2023-05-27T02:09:29;12.70;78.00
35127;DHT22;21300;52.006;5.798;2023-05-27T02:11:55;12.70;78.10
35127;DHT22;21300;52.006;5.798;2023-05-27T02:14:21;12.70;78.10
35127;DHT22;21300;52.006;5.798;2023-05-27T02:16:47;12.70;78.20
35127;DHT22;21300;52.006;5.798;2023-05-27T02:19:15;12.70;78.20
35127;DHT22;21300;52.006;5.798;2023-05-27T02:21:40;12.60;78.20
35127;DHT22;21300;52.006;5.798;2023-05-27T02:24:25;12.60;78.20
35127;DHT22;21300;52.006;5.798;2023-05-27T02:26:50;12.60;78.30
35127;DHT22;21300;52.006;5.798;2023-05-27T02:29:16;12.60;78.30
35127;DHT22;21300;52.006;5.798;2023-05-27T02:31:41;12.50;78.30
35127;DHT22;21300;52.006;5.798;2023-05-27T02:34:07;12.50;78.30
35127;DHT22;21300;52.006;5.798;2023-05-27T02:36:32;12.50;78.40
35127;DHT22;21300;52.006;5.798;2023-05-27T02:38:59;12.50;78.30
35127;DHT22;21300;52.006;5.798;2023-05-27T02:41:24;12.50;78.40
35127;DHT22;21300;52.006;5.798;2023-05-27T02:43:50;12.40;78.40
35127;DHT22;21300;52.006;5.798;2023-05-27T02:46:15;12.40;78.50
35127;DHT22;21300;52.006;5.798;2023-05-27T02:48:41;12.40;78.50
35127;DHT22;21300;52.006;5.798;2023-05-27T02:51:07;12.40;78.60
35127;DHT22;21300;52.006;5.798;2023-05-27T02:53:32;12.30;78.50
35127;DHT22;21300;52.006;5.798;2023-05-27T02:55:58;12.30;78.60
35127;DHT22;21300;52.006;5.798;2023-05-27T02:58:23;12.30;78.60
35127;DHT22;21300;52.006;5.798;2023-05-27T03:00:49;12.30;79.10
35127;DHT22;21300;52.006;5.798;2023-05-27T03:03:14;12.20;78.60
35127;DHT22;21300;52.006;5.798;2023-05-27T03:05:40;12.20;78.70
35127;DHT22;21300;52.006;5.798;2023-05-27T03:08:06;12.20;78.80
35127;DHT22;21300;52.006;5.798;2023-05-27T03:10:34;12.20;78.80
35127;DHT22;21300;52.006;5.798;2023-05-27T03:13:00;12.10;78.80
35127;DHT22;21300;52.006;5.798;2023-05-27T03:15:26;12.10;78.80
35127;DHT22;21300;52.006;5.798;2023-05-27T03:17:55;12.10;78.80
35127;DHT22;21300;52.006;5.798;2023-05-27T03:20:21;12.10;78.80
35127;DHT22;21300;52.006;5.798;2023-05-27T03:22:47;12.10;78.80
35127;DHT22;21300;52.006;5.798;2023-05-27T03:25:13;12.10;78.80
35127;DHT22;21300;52.006;5.798;2023-05-27T03:27:40;12.00;78.70
35127;DHT22;21300;52.006;5.798;2023-05-27T03:30:06;12.00;78.90
35127;DHT22;21300;52.006;5.798;2023-05-27T03:32:33;12.00;78.70
35127;DHT22;21300;52.006;5.798;2023-05-27T03:34:58;12.00;78.70
35127;DHT22;21300;52.006;5.798;2023-05-27T03:40:08;12.00;78.80
35127;DHT22;21300;52.006;5.798;2023-05-27T03:42:34;12.00;78.80
35127;DHT22;21300;52.006;5.798;2023-05-27T03:45:00;11.90;78.80
35127;DHT22;21300;52.006;5.798;2023-05-27T03:47:26;11.90;78.80
35127;DHT22;21300;52.006;5.798;2023-05-27T03:50:10;11.90;78.90
35127;DHT22;21300;52.006;5.798;2023-05-27T03:52:36;11.90;78.90
35127;DHT22;21300;52.006;5.798;2023-05-27T03:55:02;11.90;78.90
35127;DHT22;21300;52.006;5.798;2023-05-27T03:57:28;11.80;79.00
35127;DHT22;21300;52.006;5.798;2023-05-27T03:59:53;11.80;79.00
35127;DHT22;21300;52.006;5.798;2023-05-27T04:02:19;11.80;79.00
35127;DHT22;21300;52.006;5.798;2023-05-27T04:04:44;11.80;79.00
35127;DHT22;21300;52.006;5.798;2023-05-27T04:07:11;11.80;79.00
35127;DHT22;21300;52.006;5.798;2023-05-27T04:09:38;11.80;79.10
35127;DHT22;21300;52.006;5.798;2023-05-27T04:12:05;11.80;79.10
35127;DHT22;21300;52.006;5.798;2023-05-27T04:14:31;11.70;79.00
35127;DHT22;21300;52.006;5.798;2023-05-27T04:16:57;11.70;79.00
35127;DHT22;21300;52.006;5.798;2023-05-27T04:19:23;11.70;79.00
35127;DHT22;21300;52.006;5.798;2023-05-27T04:21:49;11.70;79.00
35127;DHT22;21300;52.006;5.798;2023-05-27T04:24:14;11.70;79.10
35127;DHT22;21300;52.006;5.798;2023-05-27T04:26:40;11.70;79.00
35127;DHT22;21300;52.006;5.798;2023-05-27T04:29:06;11.70;79.00
35127;DHT22;21300;52.006;5.798;2023-05-27T04:31:34;11.70;79.00
35127;DHT22;21300;52.006;5.798;2023-05-27T04:34:02;11.60;79.70
35127;DHT22;21300;52.006;5.798;2023-05-27T04:36:28;11.60;79.00
35127;DHT22;21300;52.006;5.798;2023-05-27T04:38:58;11.70;79.00
35127;DHT22;21300;52.006;5.798;2023-05-27T04:41:24;11.70;79.00
35127;DHT22;21300;52.006;5.798;2023-05-27T04:43:56;11.60;79.00
35127;DHT22;21300;52.006;5.798;2023-05-27T04:46:31;11.70;79.00
35127;DHT22;21300;52.006;5.798;2023-05-27T04:48:57;11.70;79.00
35127;DHT22;21300;52.006;5.798;2023-05-27T04:51:22;11.70;79.00
35127;DHT22;21300;52.006;5.798;2023-05-27T04:53:48;11.70;79.00
35127;DHT22;21300;52.006;5.798;2023-05-27T04:56:15;11.70;78.90
35127;DHT22;21300;52.006;5.798;2023-05-27T04:58:41;11.70;78.80
35127;DHT22;21300;52.006;5.798;2023-05-27T05:01:09;11.80;78.90
35127;DHT22;21300;52.006;5.798;2023-05-27T05:03:43;11.80;78.80
35127;DHT22;21300;52.006;5.798;2023-05-27T05:06:18;11.80;78.70
35127;DHT22;21300;52.006;5.798;2023-05-27T05:08:44;11.80;78.60
35127;DHT22;21300;52.006;5.798;2023-05-27T05:11:09;11.90;78.60
35127;DHT22;21300;52.006;5.798;2023-05-27T05:13:35;11.90;78.50
35127;DHT22;21300;52.006;5.798;2023-05-27T05:16:01;12.00;78.50
35127;DHT22;21300;52.006;5.798;2023-05-27T05:18:26;12.00;78.30
35127;DHT22;21300;52.006;5.798;2023-05-27T05:20:52;12.10;78.20
35127;DHT22;21300;52.006;5.798;2023-05-27T05:23:17;12.10;78.10
35127;DHT22;21300;52.006;5.798;2023-05-27T05:25:43;12.10;77.90
35127;DHT22;21300;52.006;5.798;2023-05-27T05:28:09;12.20;78.00
35127;DHT22;21300;52.006;5.798;2023-05-27T05:30:34;12.20;77.80
35127;DHT22;21300;52.006;5.798;2023-05-27T05:33:00;12.20;77.70
35127;DHT22;21300;52.006;5.798;2023-05-27T05:35:26;12.30;78.00
35127;DHT22;21300;52.006;5.798;2023-05-27T05:37:51;12.30;78.00
35127;DHT22;21300;52.006;5.798;2023-05-27T05:40:17;12.30;77.70
35127;DHT22;21300;52.006;5.798;2023-05-27T05:42:42;12.40;77.90
35127;DHT22;21300;52.006;5.798;2023-05-27T05:45:08;12.40;77.50
35127;DHT22;21300;52.006;5.798;2023-05-27T05:47:34;12.50;77.50
35127;DHT22;21300;52.006;5.798;2023-05-27T05:49:59;12.50;77.50
35127;DHT22;21300;52.006;5.798;2023-05-27T05:52:25;12.60;77.40
35127;DHT22;21300;52.006;5.798;2023-05-27T05:54:51;12.60;77.50
35127;DHT22;21300;52.006;5.798;2023-05-27T05:57:16;12.60;77.00
35127;DHT22;21300;52.006;5.798;2023-05-27T05:59:42;12.70;76.90
35127;DHT22;21300;52.006;5.798;2023-05-27T06:02:08;12.80;76.80
35127;DHT22;21300;52.006;5.798;2023-05-27T06:04:33;12.80;77.00
35127;DHT22;21300;52.006;5.798;2023-05-27T06:06:59;12.80;76.90
35127;DHT22;21300;52.006;5.798;2023-05-27T06:09:24;12.90;76.80
35127;DHT22;21300;52.006;5.798;2023-05-27T06:11:51;12.90;76.80
35127;DHT22;21300;52.006;5.798;2023-05-27T06:14:17;12.90;76.60
35127;DHT22;21300;52.006;5.798;2023-05-27T06:16:43;13.00;76.90
35127;DHT22;21300;52.006;5.798;2023-05-27T06:19:08;13.00;76.70
35127;DHT22;21300;52.006;5.798;2023-05-27T06:21:34;13.10;76.40
35127;DHT22;21300;52.006;5.798;2023-05-27T06:24:00;13.10;76.20
35127;DHT22;21300;52.006;5.798;2023-05-27T06:26:26;13.10;76.20
35127;DHT22;21300;52.006;5.798;2023-05-27T06:28:53;13.20;76.20
35127;DHT22;21300;52.006;5.798;2023-05-27T06:31:19;13.20;76.10
35127;DHT22;21300;52.006;5.798;2023-05-27T06:33:44;13.20;76.10
35127;DHT22;21300;52.006;5.798;2023-05-27T06:36:10;13.30;76.20
35127;DHT22;21300;52.006;5.798;2023-05-27T06:38:36;13.40;76.20
35127;DHT22;21300;52.006;5.798;2023-05-27T06:41:02;13.40;76.20
35127;DHT22;21300;52.006;5.798;2023-05-27T06:43:28;13.50;76.00
35127;DHT22;21300;52.006;5.798;2023-05-27T06:45:54;13.60;76.10
35127;DHT22;21300;52.006;5.798;2023-05-27T06:48:20;13.60;75.70
35127;DHT22;21300;52.006;5.798;2023-05-27T06:50:45;13.60;75.70
35127;DHT22;21300;52.006;5.798;2023-05-27T06:53:11;13.70;75.50
35127;DHT22;21300;52.006;5.798;2023-05-27T06:55:38;13.80;75.30
35127;DHT22;21300;52.006;5.798;2023-05-27T06:58:04;13.80;75.00
35127;DHT22;21300;52.006;5.798;2023-05-27T07:00:29;13.90;75.00
35127;DHT22;21300;52.006;5.798;2023-05-27T07:02:55;13.90;75.10
35127;DHT22;21300;52.006;5.798;2023-05-27T07:05:21;14.00;74.80
35127;DHT22;21300;52.006;5.798;2023-05-27T07:07:46;14.00;74.60
35127;DHT22;21300;52.006;5.798;2023-05-27T07:10:12;14.10;74.90
35127;DHT22;21300;52.006;5.798;2023-05-27T07:12:37;14.10;75.20
35127;DHT22;21300;52.006;5.798;2023-05-27T07:15:03;14.20;74.50
35127;DHT22;21300;52.006;5.798;2023-05-27T07:17:29;14.20;74.20
35127;DHT22;21300;52.006;5.798;2023-05-27T07:19:55;14.30;74.20
35127;DHT22;21300;52.006;5.798;2023-05-27T07:22:20;14.30;73.80
35127;DHT22;21300;52.006;5.798;2023-05-27T07:24:47;14.30;73.90
35127;DHT22;21300;52.006;5.798;2023-05-27T07:27:12;14.40;73.90
35127;DHT22;21300;52.006;5.798;2023-05-27T07:29:38;14.40;73.80
35127;DHT22;21300;52.006;5.798;2023-05-27T07:32:03;14.40;73.60
35127;DHT22;21300;52.006;5.798;2023-05-27T07:34:30;14.50;73.50
35127;DHT22;21300;52.006;5.798;2023-05-27T07:36:56;14.50;73.50
35127;DHT22;21300;52.006;5.798;2023-05-27T07:39:21;14.50;73.30
35127;DHT22;21300;52.006;5.798;2023-05-27T07:41:47;14.50;73.20
35127;DHT22;21300;52.006;5.798;2023-05-27T07:44:12;14.60;73.20
35127;DHT22;21300;52.006;5.798;2023-05-27T07:46:38;14.60;73.40
35127;DHT22;21300;52.006;5.798;2023-05-27T07:49:04;14.70;73.20
35127;DHT22;21300;52.006;5.798;2023-05-27T07:51:31;14.70;73.20
35127;DHT22;21300;52.006;5.798;2023-05-27T07:53:57;14.70;73.20
35127;DHT22;21300;52.006;5.798;2023-05-27T07:56:23;14.80;73.10
35127;DHT22;21300;52.006;5.798;2023-05-27T07:58:48;14.80;73.00
35127;DHT22;21300;52.006;5.798;2023-05-27T08:01:14;14.80;73.10
35127;DHT22;21300;52.006;5.798;2023-05-27T08:03:39;14.80;73.20
35127;DHT22;21300;52.006;5.798;2023-05-27T08:06:05;14.90;73.00
35127;DHT22;21300;52.006;5.798;2023-05-27T08:08:30;14.90;73.10
35127;DHT22;21300;52.006;5.798;2023-05-27T08:10:56;14.90;72.80
35127;DHT22;21300;52.006;5.798;2023-05-27T08:13:22;14.90;72.90
35127;DHT22;21300;52.006;5.798;2023-05-27T08:15:48;14.90;72.90
35127;DHT22;21300;52.006;5.798;2023-05-27T08:18:13;15.00;73.00
35127;DHT22;21300;52.006;5.798;2023-05-27T08:20:39;15.00;73.10
35127;DHT22;21300;52.006;5.798;2023-05-27T08:23:04;15.00;72.90
35127;DHT22;21300;52.006;5.798;2023-05-27T08:25:30;15.10;73.00
35127;DHT22;21300;52.006;5.798;2023-05-27T08:27:56;15.10;73.10
35127;DHT22;21300;52.006;5.798;2023-05-27T08:30:27;15.10;73.30
35127;DHT22;21300;52.006;5.798;2023-05-27T08:32:54;15.20;73.30
35127;DHT22;21300;52.006;5.798;2023-05-27T08:35:20;15.20;73.20
35127;DHT22;21300;52.006;5.798;2023-05-27T08:37:45;15.30;73.10
35127;DHT22;21300;52.006;5.798;2023-05-27T08:40:14;15.20;73.10
35127;DHT22;21300;52.006;5.798;2023-05-27T08:42:40;15.30;73.40
35127;DHT22;21300;52.006;5.798;2023-05-27T08:45:07;15.30;73.30
35127;DHT22;21300;52.006;5.798;2023-05-27T08:47:33;15.40;73.60
35127;DHT22;21300;52.006;5.798;2023-05-27T08:50:20;15.40;73.60
35127;DHT22;21300;52.006;5.798;2023-05-27T08:52:53;15.40;73.80
35127;DHT22;21300;52.006;5.798;2023-05-27T08:55:21;15.50;74.00
35127;DHT22;21300;52.006;5.798;2023-05-27T08:57:51;15.50;74.00
35127;DHT22;21300;52.006;5.798;2023-05-27T09:00:19;15.50;74.20
35127;DHT22;21300;52.006;5.798;2023-05-27T09:02:45;15.60;74.30
35127;DHT22;21300;52.006;5.798;2023-05-27T09:05:10;15.50;74.20
35127;DHT22;21300;52.006;5.798;2023-05-27T09:07:37;15.60;74.40
35127;DHT22;21300;52.006;5.798;2023-05-27T09:10:04;15.60;74.50
35127;DHT22;21300;52.006;5.798;2023-05-27T09:12:32;15.70;75.40
35127;DHT22;21300;52.006;5.798;2023-05-27T09:14:58;15.70;74.60
35127;DHT22;21300;52.006;5.798;2023-05-27T09:17:24;15.70;74.60
35127;DHT22;21300;52.006;5.798;2023-05-27T09:19:51;15.80;74.80
35127;DHT22;21300;52.006;5.798;2023-05-27T09:22:24;15.80;75.00
35127;DHT22;21300;52.006;5.798;2023-05-27T09:24:52;15.80;75.00
35127;DHT22;21300;52.006;5.798;2023-05-27T09:27:19;15.90;75.20
35127;DHT22;21300;52.006;5.798;2023-05-27T09:29:44;15.90;75.20
35127;DHT22;21300;52.006;5.798;2023-05-27T09:32:10;16.00;75.30
35127;DHT22;21300;52.006;5.798;2023-05-27T09:34:39;16.00;75.40
35127;DHT22;21300;52.006;5.798;2023-05-27T09:37:05;16.00;75.40
35127;DHT22;21300;52.006;5.798;2023-05-27T09:39:33;16.10;75.50
35127;DHT22;21300;52.006;5.798;2023-05-27T09:42:01;16.10;75.50
35127;DHT22;21300;52.006;5.798;2023-05-27T09:44:31;16.10;75.50
35127;DHT22;21300;52.006;5.798;2023-05-27T09:47:02;16.20;75.60
35127;DHT22;21300;52.006;5.798;2023-05-27T09:49:29;16.30;75.70
35127;DHT22;21300;52.006;5.798;2023-05-27T09:51:57;16.30;75.70
35127;DHT22;21300;52.006;5.798;2023-05-27T09:54:24;16.30;75.70
35127;DHT22;21300;52.006;5.798;2023-05-27T09:56:51;16.40;75.80
35127;DHT22;21300;52.006;5.798;2023-05-27T09:59:17;16.40;75.90
35127;DHT22;21300;52.006;5.798;2023-05-27T10:01:45;16.40;75.80
35127;DHT22;21300;52.006;5.798;2023-05-27T10:04:11;16.50;75.90
35127;DHT22;21300;52.006;5.798;2023-05-27T10:06:38;16.50;75.80
35127;DHT22;21300;52.006;5.798;2023-05-27T10:09:06;16.60;75.80
35127;DHT22;21300;52.006;5.798;2023-05-27T10:11:33;16.60;76.00
35127;DHT22;21300;52.006;5.798;2023-05-27T10:14:03;16.60;75.90
35127;DHT22;21300;52.006;5.798;2023-05-27T10:16:29;16.70;75.90
35127;DHT22;21300;52.006;5.798;2023-05-27T10:18:56;16.70;75.70
35127;DHT22;21300;52.006;5.798;2023-05-27T10:21:23;16.80;75.60
35127;DHT22;21300;52.006;5.798;2023-05-27T10:24:02;16.80;75.40
35127;DHT22;21300;52.006;5.798;2023-05-27T10:26:40;16.90;75.80
35127;DHT22;21300;52.006;5.798;2023-05-27T10:31:43;17.00;75.10
35127;DHT22;21300;52.006;5.798;2023-05-27T10:34:08;17.00;75.30
35127;DHT22;21300;52.006;5.798;2023-05-27T10:36:34;17.10;75.60
35127;DHT22;21300;52.006;5.798;2023-05-27T10:41:43;17.20;75.80
35127;DHT22;21300;52.006;5.798;2023-05-27T10:44:13;17.20;75.70
35127;DHT22;21300;52.006;5.798;2023-05-27T10:46:42;17.30;75.70
35127;DHT22;21300;52.006;5.798;2023-05-27T10:49:22;17.30;76.60
35127;DHT22;21300;52.006;5.798;2023-05-27T10:51:48;17.40;75.60
35127;DHT22;21300;52.006;5.798;2023-05-27T10:54:15;17.40;75.10
35127;DHT22;21300;52.006;5.798;2023-05-27T10:56:48;17.50;75.30
35127;DHT22;21300;52.006;5.798;2023-05-27T10:59:19;17.50;75.70
35127;DHT22;21300;52.006;5.798;2023-05-27T11:01:51;17.60;75.40
35127;DHT22;21300;52.006;5.798;2023-05-27T11:04:23;17.60;75.50
35127;DHT22;21300;52.006;5.798;2023-05-27T11:06:59;17.70;75.90
35127;DHT22;21300;52.006;5.798;2023-05-27T11:09:27;17.70;76.00
35127;DHT22;21300;52.006;5.798;2023-05-27T11:11:56;17.70;75.10
35127;DHT22;21300;52.006;5.798;2023-05-27T11:14:23;17.80;75.60
35127;DHT22;21300;52.006;5.798;2023-05-27T11:16:49;17.80;76.00
35127;DHT22;21300;52.006;5.798;2023-05-27T11:19:20;17.90;76.10
35127;DHT22;21300;52.006;5.798;2023-05-27T11:21:47;17.90;75.00
35127;DHT22;21300;52.006;5.798;2023-05-27T11:24:20;18.00;75.40
35127;DHT22;21300;52.006;5.798;2023-05-27T11:26:47;18.00;75.70
35127;DHT22;21300;52.006;5.798;2023-05-27T11:29:14;18.00;75.80
35127;DHT22;21300;52.006;5.798;2023-05-27T11:31:40;18.10;74.70
35127;DHT22;21300;52.006;5.798;2023-05-27T11:34:15;18.10;75.40
35127;DHT22;21300;52.006;5.798;2023-05-27T11:36:48;18.20;75.90
35127;DHT22;21300;52.006;5.798;2023-05-27T11:39:14;18.20;76.00
35127;DHT22;21300;52.006;5.798;2023-05-27T11:41:50;18.30;75.90
35127;DHT22;21300;52.006;5.798;2023-05-27T11:44:18;18.30;76.00
35127;DHT22;21300;52.006;5.798;2023-05-27T11:46:45;18.30;76.00
35127;DHT22;21300;52.006;5.798;2023-05-27T11:49:15;18.40;75.40
35127;DHT22;21300;52.006;5.798;2023-05-27T11:51:45;18.40;75.40
35127;DHT22;21300;52.006;5.798;2023-05-27T11:54:28;18.50;75.80
35127;DHT22;21300;52.006;5.798;2023-05-27T11:56:55;18.50;75.60
35127;DHT22;21300;52.006;5.798;2023-05-27T11:59:22;18.60;74.70
35127;DHT22;21300;52.006;5.798;2023-05-27T12:01:49;18.60;74.80
35127;DHT22;21300;52.006;5.798;2023-05-27T12:04:16;18.60;74.50
35127;DHT22;21300;52.006;5.798;2023-05-27T12:06:44;18.70;74.40
35127;DHT22;21300;52.006;5.798;2023-05-27T12:09:10;18.70;74.80
35127;DHT22;21300;52.006;5.798;2023-05-27T12:11:37;18.80;75.00
35127;DHT22;21300;52.006;5.798;2023-05-27T12:14:03;18.80;74.20
35127;DHT22;21300;52.006;5.798;2023-05-27T12:16:29;18.80;74.50
35127;DHT22;21300;52.006;5.798;2023-05-27T12:18:54;18.90;74.70
35127;DHT22;21300;52.006;5.798;2023-05-27T12:21:20;18.90;74.60
35127;DHT22;21300;52.006;5.798;2023-05-27T12:23:47;18.90;74.10
35127;DHT22;21300;52.006;5.798;2023-05-27T12:26:14;19.00;73.50
35127;DHT22;21300;52.006;5.798;2023-05-27T12:28:40;19.00;73.70
35127;DHT22;21300;52.006;5.798;2023-05-27T12:31:06;19.00;74.40
35127;DHT22;21300;52.006;5.798;2023-05-27T12:33:32;19.10;74.30
35127;DHT22;21300;52.006;5.798;2023-05-27T12:35:58;19.10;73.70
35127;DHT22;21300;52.006;5.798;2023-05-27T12:38:24;19.10;73.40
35127;DHT22;21300;52.006;5.798;2023-05-27T12:40:50;19.20;73.60
35127;DHT22;21300;52.006;5.798;2023-05-27T12:43:17;19.20;73.40
35127;DHT22;21300;52.006;5.798;2023-05-27T12:45:43;19.20;72.70
35127;DHT22;21300;52.006;5.798;2023-05-27T12:48:10;19.20;72.70
35127;DHT22;21300;52.006;5.798;2023-05-27T12:50:36;19.30;73.20
35127;DHT22;21300;52.006;5.798;2023-05-27T12:53:02;19.30;73.50
35127;DHT22;21300;52.006;5.798;2023-05-27T12:55:28;19.30;73.50
35127;DHT22;21300;52.006;5.798;2023-05-27T12:57:54;19.30;74.20
35127;DHT22;21300;52.006;5.798;2023-05-27T13:00:21;19.40;73.00
35127;DHT22;21300;52.006;5.798;2023-05-27T13:02:47;19.40;72.20
35127;DHT22;21300;52.006;5.798;2023-05-27T13:05:13;19.40;72.40
35127;DHT22;21300;52.006;5.798;2023-05-27T13:07:40;19.40;71.80
35127;DHT22;21300;52.006;5.798;2023-05-27T13:10:08;19.50;71.90
35127;DHT22;21300;52.006;5.798;2023-05-27T13:12:36;19.50;72.40
35127;DHT22;21300;52.006;5.798;2023-05-27T13:15:02;19.50;72.70
35127;DHT22;21300;52.006;5.798;2023-05-27T13:17:31;19.60;72.90
35127;DHT22;21300;52.006;5.798;2023-05-27T13:19:57;19.60;72.60
35127;DHT22;21300;52.006;5.798;2023-05-27T13:22:23;19.60;73.10
35127;DHT22;21300;52.006;5.798;2023-05-27T13:24:49;19.60;72.80
35127;DHT22;21300;52.006;5.798;2023-05-27T13:27:15;19.70;72.60
35127;DHT22;21300;52.006;5.798;2023-05-27T13:29:41;19.60;72.20
35127;DHT22;21300;52.006;5.798;2023-05-27T13:32:07;19.70;72.10
35127;DHT22;21300;52.006;5.798;2023-05-27T13:34:34;19.70;72.10
35127;DHT22;21300;52.006;5.798;2023-05-27T13:37:00;19.70;72.50
35127;DHT22;21300;52.006;5.798;2023-05-27T13:39:25;19.80;72.60
35127;DHT22;21300;52.006;5.798;2023-05-27T13:41:51;19.80;72.60
35127;DHT22;21300;52.006;5.798;2023-05-27T13:44:16;19.80;72.30
35127;DHT22;21300;52.006;5.798;2023-05-27T13:46:42;19.80;72.70
35127;DHT22;21300;52.006;5.798;2023-05-27T13:49:07;19.80;73.00
35127;DHT22;21300;52.006;5.798;2023-05-27T13:51:33;19.90;73.30
35127;DHT22;21300;52.006;5.798;2023-05-27T13:54:07;19.90;73.20
35127;DHT22;21300;52.006;5.798;2023-05-27T13:56:32;19.90;72.90
35127;DHT22;21300;52.006;5.798;2023-05-27T13:58:58;19.90;72.90
35127;DHT22;21300;52.006;5.798;2023-05-27T14:01:24;19.90;72.60
35127;DHT22;21300;52.006;5.798;2023-05-27T14:03:49;20.00;73.00
35127;DHT22;21300;52.006;5.798;2023-05-27T14:06:15;20.00;73.00
35127;DHT22;21300;52.006;5.798;2023-05-27T14:08:41;20.00;73.20
35127;DHT22;21300;52.006;5.798;2023-05-27T14:11:06;20.00;73.30
35127;DHT22;21300;52.006;5.798;2023-05-27T14:13:32;20.00;73.80
35127;DHT22;21300;52.006;5.798;2023-05-27T14:15:57;20.00;73.30
35127;DHT22;21300;52.006;5.798;2023-05-27T14:18:23;20.10;73.10
35127;DHT22;21300;52.006;5.798;2023-05-27T14:20:49;20.10;73.20
35127;DHT22;21300;52.006;5.798;2023-05-27T14:23:14;20.10;73.40
35127;DHT22;21300;52.006;5.798;2023-05-27T14:25:41;20.10;73.20
35127;DHT22;21300;52.006;5.798;2023-05-27T14:28:07;20.10;73.30
35127;DHT22;21300;52.006;5.798;2023-05-27T14:30:33;20.20;73.40
35127;DHT22;21300;52.006;5.798;2023-05-27T14:33:05;20.20;73.40
35127;DHT22;21300;52.006;5.798;2023-05-27T14:35:38;20.20;73.40
35127;DHT22;21300;52.006;5.798;2023-05-27T14:38:04;20.20;73.50
35127;DHT22;21300;52.006;5.798;2023-05-27T14:40:30;20.20;73.40
35127;DHT22;21300;52.006;5.798;2023-05-27T14:42:56;20.20;73.50
35127;DHT22;21300;52.006;5.798;2023-05-27T14:45:22;20.30;73.50
35127;DHT22;21300;52.006;5.798;2023-05-27T14:47:49;20.30;73.30
35127;DHT22;21300;52.006;5.798;2023-05-27T14:50:19;20.30;73.20
35127;DHT22;21300;52.006;5.798;2023-05-27T14:52:45;20.30;73.10
35127;DHT22;21300;52.006;5.798;2023-05-27T14:55:11;20.30;73.10
35127;DHT22;21300;52.006;5.798;2023-05-27T14:57:36;20.30;73.00
35127;DHT22;21300;52.006;5.798;2023-05-27T15:00:03;20.30;72.70
35127;DHT22;21300;52.006;5.798;2023-05-27T15:02:34;20.40;72.80
35127;DHT22;21300;52.006;5.798;2023-05-27T15:05:00;20.40;72.60
35127;DHT22;21300;52.006;5.798;2023-05-27T15:07:26;20.40;72.40
35127;DHT22;21300;52.006;5.798;2023-05-27T15:09:51;20.40;72.00
35127;DHT22;21300;52.006;5.798;2023-05-27T15:12:17;20.40;72.10
35127;DHT22;21300;52.006;5.798;2023-05-27T15:14:43;20.40;72.00
35127;DHT22;21300;52.006;5.798;2023-05-27T15:17:08;20.40;71.90
35127;DHT22;21300;52.006;5.798;2023-05-27T15:19:38;20.40;71.90
35127;DHT22;21300;52.006;5.798;2023-05-27T15:22:03;20.50;71.90
35127;DHT22;21300;52.006;5.798;2023-05-27T15:24:29;20.50;71.80
35127;DHT22;21300;52.006;5.798;2023-05-27T15:26:55;20.50;71.70
35127;DHT22;21300;52.006;5.798;2023-05-27T15:29:20;20.50;71.60
35127;DHT22;21300;52.006;5.798;2023-05-27T15:31:47;20.50;71.50
35127;DHT22;21300;52.006;5.798;2023-05-27T15:34:12;20.50;71.20
35127;DHT22;21300;52.006;5.798;2023-05-27T15:36:38;20.50;71.10
35127;DHT22;21300;52.006;5.798;2023-05-27T15:39:04;20.50;71.10
35127;DHT22;21300;52.006;5.798;2023-05-27T15:41:31;20.50;71.00
35127;DHT22;21300;52.006;5.798;2023-05-27T15:43:57;20.60;70.90
35127;DHT22;21300;52.006;5.798;2023-05-27T15:46:23;20.60;70.80